sensor_id;sensor_type;location;lat;lon;timestamp;P1;durP1;ratioP1;P2;durP2;ratioP2
27161;SDS011;54464;50.558;9.704;2023-04-01T00:01:09;2.77;;;1.27;;
27161;SDS011;54464;50.558;9.704;2023-04-01T00:03:38;4.40;;;1.17;;
27161;SDS011;54464;50.558;9.704;2023-04-01T00:06:04;8.53;;;2.00;;
27161;SDS011;54464;50.558;9.704;2023-04-01T00:08:30;4.07;;;1.50;;
27161;SDS011;54464;50.558;9.704;2023-04-01T00:10:56;7.47;;;1.70;;
27161;SDS011;54464;50.558;9.704;2023-04-01T00:13:22;4.07;;;1.53;;
27161;SDS011;54464;50.558;9.704;2023-04-01T00:15:50;4.00;;;1.70;;
27161;SDS011;54464;50.558;9.704;2023-04-01T00:18:15;6.37;;;1.87;;
27161;SDS011;54464;50.558;9.704;2023-04-01T00:20:45;5.00;;;1.77;;
27161;SDS011;54464;50.558;9.704;2023-04-01T00:23:12;4.37;;;1.50;;
27161;SDS011;54464;50.558;9.704;2023-04-01T00:25:38;15.67;;;2.27;;
27161;SDS011;54464;50.558;9.704;2023-04-01T00:28:04;6.13;;;2.10;;
27161;SDS011;54464;50.558;9.704;2023-04-01T00:30:30;7.37;;;1.90;;
27161;SDS011;54464;50.558;9.704;2023-04-01T00:32:55;5.77;;;1.43;;
27161;SDS011;54464;50.558;9.704;2023-04-01T00:35:21;4.63;;;1.87;;
27161;SDS011;54464;50.558;9.704;2023-04-01T00:37:47;8.23;;;1.60;;
27161;SDS011;54464;50.558;9.704;2023-04-01T00:40:25;8.17;;;2.27;;
27161;SDS011;54464;50.558;9.704;2023-04-01T00:42:56;9.37;;;2.60;;
27161;SDS011;54464;50.558;9.704;2023-04-01T00:45:27;4.43;;;1.80;;
27161;SDS011;54464;50.558;9.704;2023-04-01T00:47:53;7.13;;;2.73;;
27161;SDS011;54464;50.558;9.704;2023-04-01T00:50:19;6.83;;;2.40;;
27161;SDS011;54464;50.558;9.704;2023-04-01T00:52:47;7.43;;;2.37;;
27161;SDS011;54464;50.558;9.704;2023-04-01T00:55:13;5.03;;;1.90;;
27161;SDS011;54464;50.558;9.704;2023-04-01T00:57:41;4.57;;;1.43;;
27161;SDS011;54464;50.558;9.704;2023-04-01T01:00:10;6.63;;;2.17;;
27161;SDS011;54464;50.558;9.704;2023-04-01T01:02:38;5.67;;;2.10;;
27161;SDS011;54464;50.558;9.704;2023-04-01T01:05:07;6.00;;;2.17;;
27161;SDS011;54464;50.558;9.704;2023-04-01T01:07:47;5.20;;;2.00;;
27161;SDS011;54464;50.558;9.704;2023-04-01T01:10:32;8.07;;;2.00;;
27161;SDS011;54464;50.558;9.704;2023-04-01T01:16:11;4.73;;;2.17;;
27161;SDS011;54464;50.558;9.704;2023-04-01T01:21:24;5.83;;;1.67;;
27161;SDS011;54464;50.558;9.704;2023-04-01T01:24:09;8.63;;;2.40;;
27161;SDS011;54464;50.558;9.704;2023-04-01T01:27:06;7.97;;;2.60;;
27161;SDS011;54464;50.558;9.704;2023-04-01T01:35:46;8.30;;;2.70;;
27161;SDS011;54464;50.558;9.704;2023-04-01T01:38:16;7.17;;;2.10;;
27161;SDS011;54464;50.558;9.704;2023-04-01T01:40:44;5.33;;;1.87;;
27161;SDS011;54464;50.558;9.704;2023-04-01T01:43:17;5.13;;;2.10;;
27161;SDS011;54464;50.558;9.704;2023-04-01T01:45:48;5.67;;;2.20;;
27161;SDS011;54464;50.558;9.704;2023-04-01T01:48:19;6.37;;;1.80;;
27161;SDS011;54464;50.558;9.704;2023-04-01T01:50:45;7.73;;;2.00;;
27161;SDS011;54464;50.558;9.704;2023-04-01T01:53:12;5.13;;;1.77;;
27161;SDS011;54464;50.558;9.704;2023-04-01T01:55:40;4.07;;;2.20;;
27161;SDS011;54464;50.558;9.704;2023-04-01T01:58:15;5.27;;;1.93;;
27161;SDS011;54464;50.558;9.704;2023-04-01T02:00:49;4.77;;;1.73;;
27161;SDS011;54464;50.558;9.704;2023-04-01T02:03:21;8.03;;;1.83;;
27161;SDS011;54464;50.558;9.704;2023-04-01T02:05:50;5.23;;;2.03;;
27161;SDS011;54464;50.558;9.704;2023-04-01T02:08:18;3.53;;;1.37;;
27161;SDS011;54464;50.558;9.704;2023-04-01T02:11:03;6.30;;;2.13;;
27161;SDS011;54464;50.558;9.704;2023-04-01T02:13:33;6.47;;;1.63;;
27161;SDS011;54464;50.558;9.704;2023-04-01T02:16:26;7.83;;;2.03;;
27161;SDS011;54464;50.558;9.704;2023-04-01T02:18:56;7.73;;;2.13;;
27161;SDS011;54464;50.558;9.704;2023-04-01T02:21:25;5.63;;;1.90;;
27161;SDS011;54464;50.558;9.704;2023-04-01T02:23:55;5.07;;;1.60;;
27161;SDS011;54464;50.558;9.704;2023-04-01T02:26:22;6.93;;;1.60;;
27161;SDS011;54464;50.558;9.704;2023-04-01T02:28:50;3.73;;;1.80;;
27161;SDS011;54464;50.558;9.704;2023-04-01T02:31:17;5.37;;;1.63;;
27161;SDS011;54464;50.558;9.704;2023-04-01T02:33:43;2.77;;;1.43;;
27161;SDS011;54464;50.558;9.704;2023-04-01T02:36:12;3.03;;;0.97;;
27161;SDS011;54464;50.558;9.704;2023-04-01T02:38:39;5.50;;;1.70;;
27161;SDS011;54464;50.558;9.704;2023-04-01T02:41:06;6.93;;;2.33;;
27161;SDS011;54464;50.558;9.704;2023-04-01T02:43:32;7.90;;;2.00;;
27161;SDS011;54464;50.558;9.704;2023-04-01T02:45:57;6.10;;;2.00;;
27161;SDS011;54464;50.558;9.704;2023-04-01T02:48:23;7.13;;;1.47;;
27161;SDS011;54464;50.558;9.704;2023-04-01T02:50:49;7.73;;;2.13;;
27161;SDS011;54464;50.558;9.704;2023-04-01T02:53:16;6.43;;;2.13;;
27161;SDS011;54464;50.558;9.704;2023-04-01T02:55:41;4.20;;;1.47;;
27161;SDS011;54464;50.558;9.704;2023-04-01T02:58:07;4.27;;;1.70;;
27161;SDS011;54464;50.558;9.704;2023-04-01T03:00:33;4.97;;;2.03;;
27161;SDS011;54464;50.558;9.704;2023-04-01T03:02:58;3.27;;;1.40;;
27161;SDS011;54464;50.558;9.704;2023-04-01T03:05:24;5.80;;;1.87;;
27161;SDS011;54464;50.558;9.704;2023-04-01T03:07:50;4.50;;;1.90;;
27161;SDS011;54464;50.558;9.704;2023-04-01T03:10:16;4.77;;;1.60;;
27161;SDS011;54464;50.558;9.704;2023-04-01T03:12:42;5.20;;;2.20;;
27161;SDS011;54464;50.558;9.704;2023-04-01T03:15:09;4.70;;;1.73;;
27161;SDS011;54464;50.558;9.704;2023-04-01T03:17:37;2.77;;;1.67;;
27161;SDS011;54464;50.558;9.704;2023-04-01T03:20:03;5.87;;;2.23;;
27161;SDS011;54464;50.558;9.704;2023-04-01T03:22:29;5.40;;;1.73;;
27161;SDS011;54464;50.558;9.704;2023-04-01T03:24:55;4.43;;;1.80;;
27161;SDS011;54464;50.558;9.704;2023-04-01T03:27:21;9.90;;;2.33;;
27161;SDS011;54464;50.558;9.704;2023-04-01T03:29:46;8.60;;;2.27;;
27161;SDS011;54464;50.558;9.704;2023-04-01T03:32:12;4.63;;;1.97;;
27161;SDS011;54464;50.558;9.704;2023-04-01T03:34:37;4.80;;;1.93;;
27161;SDS011;54464;50.558;9.704;2023-04-01T03:37:03;4.03;;;2.07;;
27161;SDS011;54464;50.558;9.704;2023-04-01T03:39:29;3.10;;;1.70;;
27161;SDS011;54464;50.558;9.704;2023-04-01T03:41:55;3.73;;;1.70;;
27161;SDS011;54464;50.558;9.704;2023-04-01T03:44:21;7.93;;;2.60;;
27161;SDS011;54464;50.558;9.704;2023-04-01T03:46:47;5.63;;;2.33;;
27161;SDS011;54464;50.558;9.704;2023-04-01T03:49:12;10.40;;;3.43;;
27161;SDS011;54464;50.558;9.704;2023-04-01T03:51:41;8.07;;;2.83;;
27161;SDS011;54464;50.558;9.704;2023-04-01T03:54:08;6.43;;;3.43;;
27161;SDS011;54464;50.558;9.704;2023-04-01T03:56:34;3.97;;;1.30;;
27161;SDS011;54464;50.558;9.704;2023-04-01T03:59:04;4.20;;;1.50;;
27161;SDS011;54464;50.558;9.704;2023-04-01T04:01:31;3.97;;;2.00;;
27161;SDS011;54464;50.558;9.704;2023-04-01T04:03:56;5.53;;;1.90;;
27161;SDS011;54464;50.558;9.704;2023-04-01T04:06:22;5.17;;;1.70;;
27161;SDS011;54464;50.558;9.704;2023-04-01T04:08:48;6.73;;;2.03;;
27161;SDS011;54464;50.558;9.704;2023-04-01T04:11:14;7.90;;;2.40;;
27161;SDS011;54464;50.558;9.704;2023-04-01T04:13:41;3.87;;;1.37;;
27161;SDS011;54464;50.558;9.704;2023-04-01T04:16:08;6.70;;;1.80;;
27161;SDS011;54464;50.558;9.704;2023-04-01T04:18:34;3.87;;;1.57;;
27161;SDS011;54464;50.558;9.704;2023-04-01T04:21:00;5.37;;;1.80;;
27161;SDS011;54464;50.558;9.704;2023-04-01T04:23:26;4.43;;;2.27;;
27161;SDS011;54464;50.558;9.704;2023-04-01T04:25:59;3.93;;;1.80;;
27161;SDS011;54464;50.558;9.704;2023-04-01T04:28:29;8.40;;;2.50;;
27161;SDS011;54464;50.558;9.704;2023-04-01T04:30:56;3.27;;;1.47;;
27161;SDS011;54464;50.558;9.704;2023-04-01T04:33:22;3.67;;;1.40;;
27161;SDS011;54464;50.558;9.704;2023-04-01T04:35:47;5.17;;;1.43;;
27161;SDS011;54464;50.558;9.704;2023-04-01T04:38:13;6.30;;;2.77;;
27161;SDS011;54464;50.558;9.704;2023-04-01T04:40:40;6.47;;;1.90;;
27161;SDS011;54464;50.558;9.704;2023-04-01T04:43:06;4.10;;;1.50;;
27161;SDS011;54464;50.558;9.704;2023-04-01T04:45:34;7.33;;;1.60;;
27161;SDS011;54464;50.558;9.704;2023-04-01T04:48:00;4.67;;;1.67;;
27161;SDS011;54464;50.558;9.704;2023-04-01T04:50:25;5.53;;;2.10;;
27161;SDS011;54464;50.558;9.704;2023-04-01T04:52:51;2.57;;;1.10;;
27161;SDS011;54464;50.558;9.704;2023-04-01T04:55:17;5.70;;;2.33;;
27161;SDS011;54464;50.558;9.704;2023-04-01T04:57:42;3.67;;;1.63;;
27161;SDS011;54464;50.558;9.704;2023-04-01T05:00:11;6.43;;;2.57;;
27161;SDS011;54464;50.558;9.704;2023-04-01T05:02:37;4.97;;;2.00;;
27161;SDS011;54464;50.558;9.704;2023-04-01T05:05:02;6.37;;;3.13;;
27161;SDS011;54464;50.558;9.704;2023-04-01T05:07:29;7.13;;;2.93;;
27161;SDS011;54464;50.558;9.704;2023-04-01T05:09:55;4.67;;;2.10;;
27161;SDS011;54464;50.558;9.704;2023-04-01T05:12:20;5.57;;;1.90;;
27161;SDS011;54464;50.558;9.704;2023-04-01T05:14:46;7.93;;;2.27;;
27161;SDS011;54464;50.558;9.704;2023-04-01T05:17:12;5.57;;;2.20;;
27161;SDS011;54464;50.558;9.704;2023-04-01T05:19:38;7.90;;;2.57;;
27161;SDS011;54464;50.558;9.704;2023-04-01T05:22:04;5.20;;;2.40;;
27161;SDS011;54464;50.558;9.704;2023-04-01T05:24:31;8.23;;;2.73;;
27161;SDS011;54464;50.558;9.704;2023-04-01T05:26:57;5.73;;;2.40;;
27161;SDS011;54464;50.558;9.704;2023-04-01T05:29:24;6.77;;;1.70;;
27161;SDS011;54464;50.558;9.704;2023-04-01T05:31:50;5.63;;;1.83;;
27161;SDS011;54464;50.558;9.704;2023-04-01T05:34:16;5.97;;;1.97;;
27161;SDS011;54464;50.558;9.704;2023-04-01T05:36:42;4.67;;;1.90;;
27161;SDS011;54464;50.558;9.704;2023-04-01T05:39:08;7.07;;;2.07;;
27161;SDS011;54464;50.558;9.704;2023-04-01T05:41:35;2.63;;;1.10;;
27161;SDS011;54464;50.558;9.704;2023-04-01T05:44:01;3.97;;;1.67;;
27161;SDS011;54464;50.558;9.704;2023-04-01T05:46:27;2.93;;;1.03;;
27161;SDS011;54464;50.558;9.704;2023-04-01T05:48:52;3.93;;;1.63;;
27161;SDS011;54464;50.558;9.704;2023-04-01T05:51:18;3.77;;;1.57;;
27161;SDS011;54464;50.558;9.704;2023-04-01T05:53:44;1.23;;;1.03;;
27161;SDS011;54464;50.558;9.704;2023-04-01T05:56:09;2.13;;;1.13;;
27161;SDS011;54464;50.558;9.704;2023-04-01T05:58:36;6.03;;;2.53;;
27161;SDS011;54464;50.558;9.704;2023-04-01T06:01:11;5.73;;;2.40;;
27161;SDS011;54464;50.558;9.704;2023-04-01T06:03:37;5.07;;;1.63;;
27161;SDS011;54464;50.558;9.704;2023-04-01T06:06:02;7.50;;;2.73;;
27161;SDS011;54464;50.558;9.704;2023-04-01T06:08:29;7.77;;;2.17;;
27161;SDS011;54464;50.558;9.704;2023-04-01T06:18:59;6.17;;;1.87;;
27161;SDS011;54464;50.558;9.704;2023-04-01T06:21:38;4.30;;;1.80;;
27161;SDS011;54464;50.558;9.704;2023-04-01T06:24:34;5.80;;;1.93;;
27161;SDS011;54464;50.558;9.704;2023-04-01T06:27:38;4.80;;;2.33;;
27161;SDS011;54464;50.558;9.704;2023-04-01T06:33:13;7.47;;;2.67;;
27161;SDS011;54464;50.558;9.704;2023-04-01T06:36:05;7.77;;;1.90;;
27161;SDS011;54464;50.558;9.704;2023-04-01T06:44:09;49.37;;;21.00;;
27161;SDS011;54464;50.558;9.704;2023-04-01T06:46:48;7.37;;;3.40;;
27161;SDS011;54464;50.558;9.704;2023-04-01T06:54:58;2.83;;;1.23;;
27161;SDS011;54464;50.558;9.704;2023-04-01T06:57:49;4.57;;;2.20;;
27161;SDS011;54464;50.558;9.704;2023-04-01T07:00:39;5.10;;;1.63;;
27161;SDS011;54464;50.558;9.704;2023-04-01T07:05:58;3.33;;;1.20;;
27161;SDS011;54464;50.558;9.704;2023-04-01T07:08:29;3.50;;;1.00;;
27161;SDS011;54464;50.558;9.704;2023-04-01T07:11:00;3.77;;;1.60;;
27161;SDS011;54464;50.558;9.704;2023-04-01T07:13:30;5.13;;;2.17;;
27161;SDS011;54464;50.558;9.704;2023-04-01T07:22:03;3.63;;;1.23;;
27161;SDS011;54464;50.558;9.704;2023-04-01T07:24:36;5.50;;;1.67;;
27161;SDS011;54464;50.558;9.704;2023-04-01T07:27:08;3.60;;;1.60;;
27161;SDS011;54464;50.558;9.704;2023-04-01T07:29:35;3.80;;;1.70;;
27161;SDS011;54464;50.558;9.704;2023-04-01T07:32:18;4.80;;;2.00;;
27161;SDS011;54464;50.558;9.704;2023-04-01T07:43:54;2.60;;;1.40;;
27161;SDS011;54464;50.558;9.704;2023-04-01T07:46:17;2.03;;;1.27;;
27161;SDS011;54464;50.558;9.704;2023-04-01T07:49:11;4.63;;;1.47;;
27161;SDS011;54464;50.558;9.704;2023-04-01T07:54:22;5.10;;;2.00;;
27161;SDS011;54464;50.558;9.704;2023-04-01T08:02:32;3.23;;;1.50;;
27161;SDS011;54464;50.558;9.704;2023-04-01T08:05:25;3.80;;;1.40;;
27161;SDS011;54464;50.558;9.704;2023-04-01T08:14:06;1.60;;;1.40;;
27161;SDS011;54464;50.558;9.704;2023-04-01T08:16:39;0.60;;;0.60;;
27161;SDS011;54464;50.558;9.704;2023-04-01T08:19:19;4.07;;;1.23;;
27161;SDS011;54464;50.558;9.704;2023-04-01T08:21:52;1.63;;;0.90;;
27161;SDS011;54464;50.558;9.704;2023-04-01T08:24:41;2.03;;;1.30;;
27161;SDS011;54464;50.558;9.704;2023-04-01T08:27:13;2.70;;;1.70;;
27161;SDS011;54464;50.558;9.704;2023-04-01T08:32:54;3.10;;;1.27;;
27161;SDS011;54464;50.558;9.704;2023-04-01T08:35:40;3.50;;;1.40;;
27161;SDS011;54464;50.558;9.704;2023-04-01T08:38:13;1.93;;;1.10;;
27161;SDS011;54464;50.558;9.704;2023-04-01T08:43:42;2.43;;;1.30;;
27161;SDS011;54464;50.558;9.704;2023-04-01T08:46:34;4.90;;;1.77;;
27161;SDS011;54464;50.558;9.704;2023-04-01T08:49:19;5.63;;;1.23;;
27161;SDS011;54464;50.558;9.704;2023-04-01T09:14:31;3.90;;;1.60;;
27161;SDS011;54464;50.558;9.704;2023-04-01T09:17:14;3.47;;;1.57;;
27161;SDS011;54464;50.558;9.704;2023-04-01T09:20:14;2.27;;;1.23;;
27161;SDS011;54464;50.558;9.704;2023-04-01T09:23:07;2.20;;;1.33;;
27161;SDS011;54464;50.558;9.704;2023-04-01T09:25:38;3.90;;;1.60;;
27161;SDS011;54464;50.558;9.704;2023-04-01T09:33:47;2.77;;;1.27;;
27161;SDS011;54464;50.558;9.704;2023-04-01T09:44:28;2.07;;;1.30;;
27161;SDS011;54464;50.558;9.704;2023-04-01T09:50:04;3.40;;;1.17;;
27161;SDS011;54464;50.558;9.704;2023-04-01T10:01:39;2.90;;;1.30;;
27161;SDS011;54464;50.558;9.704;2023-04-01T10:15:33;1.83;;;1.30;;
27161;SDS011;54464;50.558;9.704;2023-04-01T10:47:04;0.80;;;0.80;;
27161;SDS011;54464;50.558;9.704;2023-04-01T11:22:45;1.30;;;1.20;;
27161;SDS011;54464;50.558;9.704;2023-04-01T11:42:53;1.90;;;1.20;;
27161;SDS011;54464;50.558;9.704;2023-04-01T11:45:39;1.07;;;1.00;;
27161;SDS011;54464;50.558;9.704;2023-04-01T11:48:23;1.20;;;0.87;;
27161;SDS011;54464;50.558;9.704;2023-04-01T11:56:41;2.00;;;1.30;;
27161;SDS011;54464;50.558;9.704;2023-04-01T12:04:58;1.10;;;1.10;;
27161;SDS011;54464;50.558;9.704;2023-04-01T12:07:44;2.73;;;2.17;;
27161;SDS011;54464;50.558;9.704;2023-04-01T12:10:18;3.60;;;1.60;;
27161;SDS011;54464;50.558;9.704;2023-04-01T12:22:06;1.37;;;1.00;;
27161;SDS011;54464;50.558;9.704;2023-04-01T12:24:54;1.37;;;0.77;;
27161;SDS011;54464;50.558;9.704;2023-04-01T12:30:26;2.00;;;1.37;;
27161;SDS011;54464;50.558;9.704;2023-04-01T12:38:44;1.57;;;1.20;;
27161;SDS011;54464;50.558;9.704;2023-04-01T12:41:32;1.30;;;1.20;;
27161;SDS011;54464;50.558;9.704;2023-04-01T12:44:23;1.70;;;1.60;;
27161;SDS011;54464;50.558;9.704;2023-04-01T12:52:54;1.50;;;1.40;;
27161;SDS011;54464;50.558;9.704;2023-04-01T12:55:43;1.40;;;1.30;;
27161;SDS011;54464;50.558;9.704;2023-04-01T13:09:53;1.67;;;1.10;;
27161;SDS011;54464;50.558;9.704;2023-04-01T13:18:11;1.60;;;1.33;;
27161;SDS011;54464;50.558;9.704;2023-04-01T13:21:08;1.30;;;0.90;;
27161;SDS011;54464;50.558;9.704;2023-04-01T13:26:35;1.60;;;1.00;;
27161;SDS011;54464;50.558;9.704;2023-04-01T13:29:21;1.07;;;1.07;;
27161;SDS011;54464;50.558;9.704;2023-04-01T13:34:39;2.40;;;1.10;;
27161;SDS011;54464;50.558;9.704;2023-04-01T13:42:28;2.10;;;1.63;;
27161;SDS011;54464;50.558;9.704;2023-04-01T13:48:01;3.80;;;3.30;;
27161;SDS011;54464;50.558;9.704;2023-04-01T13:50:50;1.00;;;1.00;;
27161;SDS011;54464;50.558;9.704;2023-04-01T13:53:34;1.50;;;1.40;;
27161;SDS011;54464;50.558;9.704;2023-04-01T14:08:00;1.80;;;1.70;;
27161;SDS011;54464;50.558;9.704;2023-04-01T14:27:53;3.60;;;3.23;;
27161;SDS011;54464;50.558;9.704;2023-04-01T14:30:38;2.03;;;1.93;;
27161;SDS011;54464;50.558;9.704;2023-04-01T14:44:44;7.30;;;6.77;;
27161;SDS011;54464;50.558;9.704;2023-04-01T14:50:14;5.70;;;5.10;;
27161;SDS011;54464;50.558;9.704;2023-04-01T14:52:56;7.63;;;6.93;;
27161;SDS011;54464;50.558;9.704;2023-04-01T14:55:27;4.73;;;2.60;;
27161;SDS011;54464;50.558;9.704;2023-04-01T14:58:00;1.90;;;1.80;;
27161;SDS011;54464;50.558;9.704;2023-04-01T15:00:55;1.80;;;1.63;;
27161;SDS011;54464;50.558;9.704;2023-04-01T15:03:22;2.87;;;2.50;;
27161;SDS011;54464;50.558;9.704;2023-04-01T15:14:40;2.93;;;2.40;;
27161;SDS011;54464;50.558;9.704;2023-04-01T15:19:56;4.93;;;4.47;;
27161;SDS011;54464;50.558;9.704;2023-04-01T15:22:36;3.80;;;3.50;;
27161;SDS011;54464;50.558;9.704;2023-04-01T15:28:10;11.67;;;10.47;;
27161;SDS011;54464;50.558;9.704;2023-04-01T15:33:47;5.20;;;4.80;;
27161;SDS011;54464;50.558;9.704;2023-04-01T15:37:11;4.87;;;4.37;;
27161;SDS011;54464;50.558;9.704;2023-04-01T15:40:01;2.77;;;2.57;;
27161;SDS011;54464;50.558;9.704;2023-04-01T15:48:35;2.40;;;2.20;;
27161;SDS011;54464;50.558;9.704;2023-04-01T15:51:01;5.17;;;3.43;;
27161;SDS011;54464;50.558;9.704;2023-04-01T16:02:13;6.07;;;5.47;;
27161;SDS011;54464;50.558;9.704;2023-04-01T16:07:55;5.30;;;3.23;;
27161;SDS011;54464;50.558;9.704;2023-04-01T16:13:15;2.37;;;2.10;;
27161;SDS011;54464;50.558;9.704;2023-04-01T16:15:49;5.57;;;5.03;;
27161;SDS011;54464;50.558;9.704;2023-04-01T16:24:49;2.53;;;2.33;;
27161;SDS011;54464;50.558;9.704;2023-04-01T16:27:54;3.47;;;3.17;;
27161;SDS011;54464;50.558;9.704;2023-04-01T16:41:34;3.73;;;3.10;;
27161;SDS011;54464;50.558;9.704;2023-04-01T16:44:23;2.57;;;2.37;;
27161;SDS011;54464;50.558;9.704;2023-04-01T16:46:51;2.53;;;2.23;;
27161;SDS011;54464;50.558;9.704;2023-04-01T16:49:25;3.53;;;3.23;;
27161;SDS011;54464;50.558;9.704;2023-04-01T16:54:29;4.70;;;4.30;;
27161;SDS011;54464;50.558;9.704;2023-04-01T16:59:36;5.60;;;5.00;;
27161;SDS011;54464;50.558;9.704;2023-04-01T17:04:36;4.43;;;4.03;;
27161;SDS011;54464;50.558;9.704;2023-04-01T17:15:55;6.53;;;5.93;;
27161;SDS011;54464;50.558;9.704;2023-04-01T17:27:11;5.90;;;5.40;;
27161;SDS011;54464;50.558;9.704;2023-04-01T17:30:03;6.00;;;5.00;;
27161;SDS011;54464;50.558;9.704;2023-04-01T17:41:05;4.87;;;4.37;;
27161;SDS011;54464;50.558;9.704;2023-04-01T17:46:29;3.20;;;2.90;;
27161;SDS011;54464;50.558;9.704;2023-04-01T17:51:40;3.53;;;3.23;;
27161;SDS011;54464;50.558;9.704;2023-04-01T18:00:00;4.40;;;4.00;;
27161;SDS011;54464;50.558;9.704;2023-04-01T18:02:49;4.03;;;3.63;;
27161;SDS011;54464;50.558;9.704;2023-04-01T18:08:17;4.20;;;3.80;;
27161;SDS011;54464;50.558;9.704;2023-04-01T18:10:59;3.37;;;3.07;;
27161;SDS011;54464;50.558;9.704;2023-04-01T18:16:36;3.30;;;3.00;;
27161;SDS011;54464;50.558;9.704;2023-04-01T18:22:26;3.37;;;3.07;;
27161;SDS011;54464;50.558;9.704;2023-04-01T18:27:47;3.90;;;3.60;;
27161;SDS011;54464;50.558;9.704;2023-04-01T18:30:18;4.00;;;3.60;;
27161;SDS011;54464;50.558;9.704;2023-04-01T18:33:05;4.27;;;3.60;;
27161;SDS011;54464;50.558;9.704;2023-04-01T18:35:54;3.10;;;2.80;;
27161;SDS011;54464;50.558;9.704;2023-04-01T18:38:25;3.40;;;3.10;;
27161;SDS011;54464;50.558;9.704;2023-04-01T18:41:13;3.13;;;2.80;;
27161;SDS011;54464;50.558;9.704;2023-04-01T18:44:03;4.10;;;2.70;;
27161;SDS011;54464;50.558;9.704;2023-04-01T18:49:05;2.07;;;1.90;;
27161;SDS011;54464;50.558;9.704;2023-04-01T18:51:49;2.20;;;1.80;;
27161;SDS011;54464;50.558;9.704;2023-04-01T18:54:30;2.20;;;2.00;;
27161;SDS011;54464;50.558;9.704;2023-04-01T18:57:18;2.30;;;2.10;;
27161;SDS011;54464;50.558;9.704;2023-04-01T18:59:53;2.90;;;1.70;;
27161;SDS011;54464;50.558;9.704;2023-04-01T19:02:43;2.80;;;2.40;;
27161;SDS011;54464;50.558;9.704;2023-04-01T19:05:19;3.50;;;2.80;;
27161;SDS011;54464;50.558;9.704;2023-04-01T19:07:47;4.43;;;2.83;;
27161;SDS011;54464;50.558;9.704;2023-04-01T19:20:56;6.53;;;4.40;;
27161;SDS011;54464;50.558;9.704;2023-04-01T19:26:39;5.20;;;4.70;;
27161;SDS011;54464;50.558;9.704;2023-04-01T19:34:47;6.67;;;6.07;;
27161;SDS011;54464;50.558;9.704;2023-04-01T19:37:34;8.67;;;6.50;;
27161;SDS011;54464;50.558;9.704;2023-04-01T19:45:44;7.50;;;6.80;;
27161;SDS011;54464;50.558;9.704;2023-04-01T19:48:34;7.77;;;7.00;;
27161;SDS011;54464;50.558;9.704;2023-04-01T19:51:30;7.73;;;6.97;;
27161;SDS011;54464;50.558;9.704;2023-04-01T19:56:52;7.07;;;6.33;;
27161;SDS011;54464;50.558;9.704;2023-04-01T20:02:24;7.57;;;6.87;;
27161;SDS011;54464;50.558;9.704;2023-04-01T20:04:55;8.97;;;7.20;;
27161;SDS011;54464;50.558;9.704;2023-04-01T20:07:29;7.70;;;6.90;;
27161;SDS011;54464;50.558;9.704;2023-04-01T20:10:09;9.93;;;8.27;;
27161;SDS011;54464;50.558;9.704;2023-04-01T20:13:00;10.40;;;9.30;;
27161;SDS011;54464;50.558;9.704;2023-04-01T20:15:37;12.13;;;9.93;;
27161;SDS011;54464;50.558;9.704;2023-04-01T20:18:18;12.47;;;11.07;;
27161;SDS011;54464;50.558;9.704;2023-04-01T20:21:16;14.20;;;10.77;;
27161;SDS011;54464;50.558;9.704;2023-04-01T20:26:40;9.73;;;8.73;;
27161;SDS011;54464;50.558;9.704;2023-04-01T20:31:42;9.37;;;8.47;;
27161;SDS011;54464;50.558;9.704;2023-04-01T20:39:40;7.07;;;6.37;;
27161;SDS011;54464;50.558;9.704;2023-04-01T20:47:39;8.80;;;7.90;;
27161;SDS011;54464;50.558;9.704;2023-04-01T20:50:31;9.90;;;7.43;;
27161;SDS011;54464;50.558;9.704;2023-04-01T20:53:50;9.20;;;8.13;;
27161;SDS011;54464;50.558;9.704;2023-04-01T20:56:51;8.70;;;7.80;;
27161;SDS011;54464;50.558;9.704;2023-04-01T21:08:19;10.20;;;8.93;;
27161;SDS011;54464;50.558;9.704;2023-04-01T21:13:44;9.70;;;8.43;;
27161;SDS011;54464;50.558;9.704;2023-04-01T21:19:04;10.33;;;8.60;;
27161;SDS011;54464;50.558;9.704;2023-04-01T21:21:42;12.30;;;10.17;;
27161;SDS011;54464;50.558;9.704;2023-04-01T21:28:00;12.07;;;10.03;;
27161;SDS011;54464;50.558;9.704;2023-04-01T21:30:32;13.43;;;11.07;;
27161;SDS011;54464;50.558;9.704;2023-04-01T22:12:01;15.80;;;11.60;;
27161;SDS011;54464;50.558;9.704;2023-04-01T22:14:38;15.50;;;11.37;;
27161;SDS011;54464;50.558;9.704;2023-04-01T22:20:16;15.93;;;11.93;;
27161;SDS011;54464;50.558;9.704;2023-04-01T22:25:43;14.40;;;11.00;;
27161;SDS011;54464;50.558;9.704;2023-04-01T22:28:11;12.83;;;10.60;;
27161;SDS011;54464;50.558;9.704;2023-04-01T22:30:54;14.03;;;10.77;;
27161;SDS011;54464;50.558;9.704;2023-04-01T22:35:59;12.43;;;10.27;;
27161;SDS011;54464;50.558;9.704;2023-04-01T22:38:51;12.50;;;10.23;;
27161;SDS011;54464;50.558;9.704;2023-04-01T22:43:56;11.93;;;9.60;;
27161;SDS011;54464;50.558;9.704;2023-04-01T22:49:11;12.97;;;10.43;;
27161;SDS011;54464;50.558;9.704;2023-04-01T22:51:54;12.30;;;10.07;;
27161;SDS011;54464;50.558;9.704;2023-04-01T22:54:30;12.47;;;10.20;;
27161;SDS011;54464;50.558;9.704;2023-04-01T22:57:10;14.50;;;10.00;;
27161;SDS011;54464;50.558;9.704;2023-04-01T22:59:42;13.60;;;9.90;;
27161;SDS011;54464;50.558;9.704;2023-04-01T23:02:15;13.13;;;10.23;;
27161;SDS011;54464;50.558;9.704;2023-04-01T23:04:47;13.80;;;10.40;;
27161;SDS011;54464;50.558;9.704;2023-04-01T23:10:02;14.23;;;11.13;;
27161;SDS011;54464;50.558;9.704;2023-04-01T23:12:36;16.07;;;12.23;;
27161;SDS011;54464;50.558;9.704;2023-04-01T23:15:03;16.70;;;11.73;;
27161;SDS011;54464;50.558;9.704;2023-04-01T23:17:45;14.77;;;11.20;;
27161;SDS011;54464;50.558;9.704;2023-04-01T23:20:29;14.70;;;11.23;;
27161;SDS011;54464;50.558;9.704;2023-04-01T23:23:17;14.50;;;10.90;;
27161;SDS011;54464;50.558;9.704;2023-04-01T23:28:45;16.10;;;11.73;;
27161;SDS011;54464;50.558;9.704;2023-04-01T23:31:36;16.63;;;11.73;;
27161;SDS011;54464;50.558;9.704;2023-04-01T23:36:43;15.60;;;11.10;;
27161;SDS011;54464;50.558;9.704;2023-04-01T23:40:12;16.23;;;11.33;;
27161;SDS011;54464;50.558;9.704;2023-04-01T23:42:18;16.57;;;11.90;;
27161;SDS011;54464;50.558;9.704;2023-04-01T23:44:48;15.97;;;12.40;;
27161;SDS011;54464;50.558;9.704;2023-04-01T23:47:37;14.73;;;10.73;;
27161;SDS011;54464;50.558;9.704;2023-04-01T23:50:16;16.60;;;11.57;;
27161;SDS011;54464;50.558;9.704;2023-04-01T23:52:48;16.73;;;11.83;;
27161;SDS011;54464;50.558;9.704;2023-04-01T23:55:18;15.80;;;11.83;;
27161;SDS011;54464;50.558;9.704;2023-04-01T23:58:00;17.10;;;12.23;;
